TAF Text Data
IDs:
Format:
Raw Decoded Include METAR

Data at: 1309 UTC 10 Jul 2020

KRKD 101128Z 1012/1112 20003KT 1/4SM FG OVC003
  FM101330 15005KT 4SM BR OVC006
  FM101600 16007KT P6SM BKN030
  FM102100 12004KT 2SM BR OVC003
  FM110200 09007KT 1/4SM -SHRA FG OVC002